sensor_id;sensor_type;location;lat;lon;timestamp;temperature;humidity
13591;DHT22;6866;50.778;7.206;2023-01-26T00:00:59;2.40;99.90
13591;DHT22;6866;50.778;7.206;2023-01-26T00:03:25;2.30;99.90
13591;DHT22;6866;50.778;7.206;2023-01-26T00:05:51;2.30;99.90
13591;DHT22;6866;50.778;7.206;2023-01-26T00:08:17;2.40;99.90
13591;DHT22;6866;50.778;7.206;2023-01-26T00:10:43;2.10;99.90
13591;DHT22;6866;50.778;7.206;2023-01-26T00:13:16;2.10;99.90
13591;DHT22;6866;50.778;7.206;2023-01-26T00:15:43;2.20;99.90
13591;DHT22;6866;50.778;7.206;2023-01-26T00:18:09;2.20;99.90
13591;DHT22;6866;50.778;7.206;2023-01-26T00:20:34;2.20;99.90
13591;DHT22;6866;50.778;7.206;2023-01-26T00:23:00;2.20;99.90
13591;DHT22;6866;50.778;7.206;2023-01-26T00:25:25;2.10;99.90
13591;DHT22;6866;50.778;7.206;2023-01-26T00:27:51;2.00;99.90
13591;DHT22;6866;50.778;7.206;2023-01-26T00:30:16;1.90;99.90
13591;DHT22;6866;50.778;7.206;2023-01-26T00:32:42;1.80;99.90
13591;DHT22;6866;50.778;7.206;2023-01-26T00:35:08;1.80;99.90
13591;DHT22;6866;50.778;7.206;2023-01-26T00:37:33;1.90;99.90
13591;DHT22;6866;50.778;7.206;2023-01-26T00:39:59;2.00;99.90
13591;DHT22;6866;50.778;7.206;2023-01-26T00:42:25;2.10;99.90
13591;DHT22;6866;50.778;7.206;2023-01-26T00:44:50;2.30;99.90
13591;DHT22;6866;50.778;7.206;2023-01-26T00:47:16;2.30;99.90
13591;DHT22;6866;50.778;7.206;2023-01-26T00:49:43;2.20;99.90
13591;DHT22;6866;50.778;7.206;2023-01-26T00:52:09;2.30;99.90
13591;DHT22;6866;50.778;7.206;2023-01-26T00:54:35;2.10;99.90
13591;DHT22;6866;50.778;7.206;2023-01-26T00:57:01;2.10;99.90
13591;DHT22;6866;50.778;7.206;2023-01-26T00:59:26;2.20;99.90
13591;DHT22;6866;50.778;7.206;2023-01-26T01:01:52;2.10;99.90
13591;DHT22;6866;50.778;7.206;2023-01-26T01:04:18;2.10;99.90
13591;DHT22;6866;50.778;7.206;2023-01-26T01:06:44;2.20;99.90
13591;DHT22;6866;50.778;7.206;2023-01-26T01:09:09;2.10;99.90
13591;DHT22;6866;50.778;7.206;2023-01-26T01:11:35;1.90;99.90
13591;DHT22;6866;50.778;7.206;2023-01-26T01:14:01;1.90;99.90
13591;DHT22;6866;50.778;7.206;2023-01-26T01:16:27;1.90;99.90
13591;DHT22;6866;50.778;7.206;2023-01-26T01:18:54;1.90;99.90
13591;DHT22;6866;50.778;7.206;2023-01-26T01:21:21;1.90;99.90
13591;DHT22;6866;50.778;7.206;2023-01-26T01:23:46;2.00;99.90
13591;DHT22;6866;50.778;7.206;2023-01-26T01:26:13;1.90;99.90
13591;DHT22;6866;50.778;7.206;2023-01-26T01:28:40;2.10;99.90
13591;DHT22;6866;50.778;7.206;2023-01-26T01:31:07;2.10;99.90
13591;DHT22;6866;50.778;7.206;2023-01-26T01:33:33;2.00;99.90
13591;DHT22;6866;50.778;7.206;2023-01-26T01:36:01;2.00;99.90
13591;DHT22;6866;50.778;7.206;2023-01-26T01:38:27;1.90;99.90
13591;DHT22;6866;50.778;7.206;2023-01-26T01:40:54;1.90;99.90
13591;DHT22;6866;50.778;7.206;2023-01-26T01:43:20;1.80;99.90
13591;DHT22;6866;50.778;7.206;2023-01-26T01:45:47;1.80;99.90
13591;DHT22;6866;50.778;7.206;2023-01-26T01:48:44;1.70;99.90
13591;DHT22;6866;50.778;7.206;2023-01-26T01:51:16;1.80;99.90
13591;DHT22;6866;50.778;7.206;2023-01-26T01:53:46;1.80;99.90
13591;DHT22;6866;50.778;7.206;2023-01-26T01:56:16;1.80;99.90
13591;DHT22;6866;50.778;7.206;2023-01-26T01:58:46;1.90;99.90
13591;DHT22;6866;50.778;7.206;2023-01-26T02:03:50;1.90;99.90
13591;DHT22;6866;50.778;7.206;2023-01-26T02:06:25;1.90;99.90
13591;DHT22;6866;50.778;7.206;2023-01-26T02:08:54;2.00;99.90
13591;DHT22;6866;50.778;7.206;2023-01-26T02:11:27;2.10;99.90
13591;DHT22;6866;50.778;7.206;2023-01-26T02:13:56;2.10;99.90
13591;DHT22;6866;50.778;7.206;2023-01-26T02:16:22;2.10;99.90
13591;DHT22;6866;50.778;7.206;2023-01-26T02:18:48;2.00;99.90
13591;DHT22;6866;50.778;7.206;2023-01-26T02:21:19;2.00;99.90
13591;DHT22;6866;50.778;7.206;2023-01-26T02:26:32;1.90;99.90
13591;DHT22;6866;50.778;7.206;2023-01-26T02:29:00;1.90;99.90
13591;DHT22;6866;50.778;7.206;2023-01-26T02:31:26;2.00;99.90
13591;DHT22;6866;50.778;7.206;2023-01-26T02:33:52;2.10;99.90
13591;DHT22;6866;50.778;7.206;2023-01-26T02:36:29;2.00;99.90
13591;DHT22;6866;50.778;7.206;2023-01-26T02:41:38;1.90;99.90
13591;DHT22;6866;50.778;7.206;2023-01-26T02:44:24;2.00;99.90
13591;DHT22;6866;50.778;7.206;2023-01-26T02:46:51;1.80;99.90
13591;DHT22;6866;50.778;7.206;2023-01-26T02:49:17;1.90;99.90
13591;DHT22;6866;50.778;7.206;2023-01-26T02:52:03;1.90;99.90
13591;DHT22;6866;50.778;7.206;2023-01-26T02:54:29;2.00;99.90
13591;DHT22;6866;50.778;7.206;2023-01-26T02:57:13;2.00;99.90
13591;DHT22;6866;50.778;7.206;2023-01-26T02:59:38;1.80;99.90
13591;DHT22;6866;50.778;7.206;2023-01-26T03:02:04;1.90;99.90
13591;DHT22;6866;50.778;7.206;2023-01-26T03:04:30;2.00;99.90
13591;DHT22;6866;50.778;7.206;2023-01-26T03:06:55;2.00;99.90
13591;DHT22;6866;50.778;7.206;2023-01-26T03:09:21;2.00;99.90
13591;DHT22;6866;50.778;7.206;2023-01-26T03:11:46;1.90;99.90
13591;DHT22;6866;50.778;7.206;2023-01-26T03:14:13;1.90;99.90
13591;DHT22;6866;50.778;7.206;2023-01-26T03:16:39;1.90;99.90
13591;DHT22;6866;50.778;7.206;2023-01-26T03:19:06;1.90;99.90
13591;DHT22;6866;50.778;7.206;2023-01-26T03:21:51;2.00;99.90
13591;DHT22;6866;50.778;7.206;2023-01-26T03:24:35;2.00;99.90
13591;DHT22;6866;50.778;7.206;2023-01-26T03:27:19;2.00;99.90
13591;DHT22;6866;50.778;7.206;2023-01-26T03:29:51;2.10;99.90
13591;DHT22;6866;50.778;7.206;2023-01-26T03:32:17;1.90;99.90
13591;DHT22;6866;50.778;7.206;2023-01-26T03:34:42;1.70;99.90
13591;DHT22;6866;50.778;7.206;2023-01-26T03:37:08;1.60;99.90
13591;DHT22;6866;50.778;7.206;2023-01-26T03:39:34;1.70;99.90
13591;DHT22;6866;50.778;7.206;2023-01-26T03:42:18;1.80;99.90
13591;DHT22;6866;50.778;7.206;2023-01-26T03:45:03;2.00;99.90
13591;DHT22;6866;50.778;7.206;2023-01-26T03:47:47;2.00;99.90
13591;DHT22;6866;50.778;7.206;2023-01-26T03:50:31;1.90;99.90
13591;DHT22;6866;50.778;7.206;2023-01-26T03:53:18;1.90;99.90
13591;DHT22;6866;50.778;7.206;2023-01-26T03:56:04;2.10;99.90
13591;DHT22;6866;50.778;7.206;2023-01-26T03:58:54;2.10;99.90
13591;DHT22;6866;50.778;7.206;2023-01-26T04:01:21;1.90;99.90
13591;DHT22;6866;50.778;7.206;2023-01-26T04:03:51;1.90;99.90
13591;DHT22;6866;50.778;7.206;2023-01-26T04:06:39;2.00;99.90
13591;DHT22;6866;50.778;7.206;2023-01-26T04:09:23;2.10;99.90
13591;DHT22;6866;50.778;7.206;2023-01-26T04:11:49;2.10;99.90
13591;DHT22;6866;50.778;7.206;2023-01-26T04:14:15;2.10;99.90
13591;DHT22;6866;50.778;7.206;2023-01-26T04:17:01;2.10;99.90
13591;DHT22;6866;50.778;7.206;2023-01-26T04:19:45;2.10;99.90
13591;DHT22;6866;50.778;7.206;2023-01-26T04:22:30;2.00;99.90
13591;DHT22;6866;50.778;7.206;2023-01-26T04:24:55;2.00;99.90
13591;DHT22;6866;50.778;7.206;2023-01-26T04:27:24;1.80;99.90
13591;DHT22;6866;50.778;7.206;2023-01-26T04:29:49;1.90;99.90
13591;DHT22;6866;50.778;7.206;2023-01-26T04:32:15;1.90;99.90
13591;DHT22;6866;50.778;7.206;2023-01-26T04:34:40;2.00;99.90
13591;DHT22;6866;50.778;7.206;2023-01-26T04:37:07;2.00;99.90
13591;DHT22;6866;50.778;7.206;2023-01-26T04:39:33;2.00;99.90
13591;DHT22;6866;50.778;7.206;2023-01-26T04:41:59;2.00;99.90
13591;DHT22;6866;50.778;7.206;2023-01-26T04:44:24;1.90;99.90
13591;DHT22;6866;50.778;7.206;2023-01-26T04:46:50;2.00;99.90
13591;DHT22;6866;50.778;7.206;2023-01-26T04:49:15;2.00;99.90
13591;DHT22;6866;50.778;7.206;2023-01-26T04:51:41;2.10;99.90
13591;DHT22;6866;50.778;7.206;2023-01-26T04:54:06;2.00;99.90
13591;DHT22;6866;50.778;7.206;2023-01-26T04:56:34;2.00;99.90
13591;DHT22;6866;50.778;7.206;2023-01-26T04:59:02;2.00;99.90
13591;DHT22;6866;50.778;7.206;2023-01-26T05:01:29;2.10;99.90
13591;DHT22;6866;50.778;7.206;2023-01-26T05:03:54;2.10;99.90
13591;DHT22;6866;50.778;7.206;2023-01-26T05:06:20;2.00;99.90
13591;DHT22;6866;50.778;7.206;2023-01-26T05:08:46;2.00;99.90
13591;DHT22;6866;50.778;7.206;2023-01-26T05:11:11;2.00;99.90
13591;DHT22;6866;50.778;7.206;2023-01-26T05:13:37;2.00;99.90
13591;DHT22;6866;50.778;7.206;2023-01-26T05:16:04;2.00;99.90
13591;DHT22;6866;50.778;7.206;2023-01-26T05:18:30;1.90;99.90
13591;DHT22;6866;50.778;7.206;2023-01-26T05:20:56;1.70;99.90
13591;DHT22;6866;50.778;7.206;2023-01-26T05:23:22;1.70;99.90
13591;DHT22;6866;50.778;7.206;2023-01-26T05:25:47;1.90;99.90
13591;DHT22;6866;50.778;7.206;2023-01-26T05:28:13;1.90;99.90
13591;DHT22;6866;50.778;7.206;2023-01-26T05:30:38;1.80;99.90
13591;DHT22;6866;50.778;7.206;2023-01-26T05:33:06;1.70;99.90
13591;DHT22;6866;50.778;7.206;2023-01-26T05:35:32;1.70;99.90
13591;DHT22;6866;50.778;7.206;2023-01-26T05:37:58;1.70;99.90
13591;DHT22;6866;50.778;7.206;2023-01-26T05:40:23;1.60;99.90
13591;DHT22;6866;50.778;7.206;2023-01-26T05:42:50;1.60;99.90
13591;DHT22;6866;50.778;7.206;2023-01-26T05:45:16;1.60;99.90
13591;DHT22;6866;50.778;7.206;2023-01-26T05:47:43;1.70;99.90
13591;DHT22;6866;50.778;7.206;2023-01-26T05:50:09;1.50;99.90
13591;DHT22;6866;50.778;7.206;2023-01-26T05:52:36;1.50;99.90
13591;DHT22;6866;50.778;7.206;2023-01-26T05:55:03;1.50;99.90
13591;DHT22;6866;50.778;7.206;2023-01-26T05:57:29;1.50;99.90
13591;DHT22;6866;50.778;7.206;2023-01-26T05:59:54;1.50;99.90
13591;DHT22;6866;50.778;7.206;2023-01-26T06:02:20;1.60;99.90
13591;DHT22;6866;50.778;7.206;2023-01-26T06:04:45;1.60;99.90
13591;DHT22;6866;50.778;7.206;2023-01-26T06:07:11;1.60;99.90
13591;DHT22;6866;50.778;7.206;2023-01-26T06:09:38;1.60;99.90
13591;DHT22;6866;50.778;7.206;2023-01-26T06:12:05;1.60;99.90
13591;DHT22;6866;50.778;7.206;2023-01-26T06:14:31;1.60;99.90
13591;DHT22;6866;50.778;7.206;2023-01-26T06:16:56;1.50;99.90
13591;DHT22;6866;50.778;7.206;2023-01-26T06:19:22;1.60;99.90
13591;DHT22;6866;50.778;7.206;2023-01-26T06:21:47;1.70;99.90
13591;DHT22;6866;50.778;7.206;2023-01-26T06:24:13;1.70;99.90
13591;DHT22;6866;50.778;7.206;2023-01-26T06:26:39;1.50;99.90
13591;DHT22;6866;50.778;7.206;2023-01-26T06:29:05;1.50;99.90
13591;DHT22;6866;50.778;7.206;2023-01-26T06:31:30;1.60;99.90
13591;DHT22;6866;50.778;7.206;2023-01-26T06:33:56;1.70;99.90
13591;DHT22;6866;50.778;7.206;2023-01-26T06:36:22;1.60;99.90
13591;DHT22;6866;50.778;7.206;2023-01-26T06:38:49;1.50;99.90
13591;DHT22;6866;50.778;7.206;2023-01-26T06:41:15;1.50;99.90
13591;DHT22;6866;50.778;7.206;2023-01-26T06:43:44;1.70;99.90
13591;DHT22;6866;50.778;7.206;2023-01-26T06:46:11;1.80;99.90
13591;DHT22;6866;50.778;7.206;2023-01-26T06:48:36;1.70;99.90
13591;DHT22;6866;50.778;7.206;2023-01-26T06:53:51;1.50;99.90
13591;DHT22;6866;50.778;7.206;2023-01-26T06:56:17;1.50;99.90
13591;DHT22;6866;50.778;7.206;2023-01-26T06:58:43;1.50;99.90
13591;DHT22;6866;50.778;7.206;2023-01-26T07:01:17;1.60;99.90
13591;DHT22;6866;50.778;7.206;2023-01-26T07:03:42;1.60;99.90
13591;DHT22;6866;50.778;7.206;2023-01-26T07:06:08;1.50;99.90
13591;DHT22;6866;50.778;7.206;2023-01-26T07:08:36;1.50;99.90
13591;DHT22;6866;50.778;7.206;2023-01-26T07:11:02;1.40;99.90
13591;DHT22;6866;50.778;7.206;2023-01-26T07:13:28;1.40;99.90
13591;DHT22;6866;50.778;7.206;2023-01-26T07:16:04;1.50;99.90
13591;DHT22;6866;50.778;7.206;2023-01-26T07:18:31;1.50;99.90
13591;DHT22;6866;50.778;7.206;2023-01-26T07:21:01;1.50;99.90
13591;DHT22;6866;50.778;7.206;2023-01-26T07:23:27;1.60;99.90
13591;DHT22;6866;50.778;7.206;2023-01-26T07:25:53;1.60;99.90
13591;DHT22;6866;50.778;7.206;2023-01-26T07:28:18;1.50;99.90
13591;DHT22;6866;50.778;7.206;2023-01-26T07:30:44;1.60;99.90
13591;DHT22;6866;50.778;7.206;2023-01-26T07:33:09;1.80;99.90
13591;DHT22;6866;50.778;7.206;2023-01-26T07:35:35;1.70;99.90
13591;DHT22;6866;50.778;7.206;2023-01-26T07:38:03;1.70;99.90
13591;DHT22;6866;50.778;7.206;2023-01-26T07:40:28;1.70;99.90
13591;DHT22;6866;50.778;7.206;2023-01-26T07:42:55;1.80;99.90
13591;DHT22;6866;50.778;7.206;2023-01-26T07:45:20;1.70;99.90
13591;DHT22;6866;50.778;7.206;2023-01-26T07:47:46;1.70;99.90
13591;DHT22;6866;50.778;7.206;2023-01-26T07:50:12;1.70;99.90
13591;DHT22;6866;50.778;7.206;2023-01-26T07:52:38;1.70;99.90
13591;DHT22;6866;50.778;7.206;2023-01-26T07:55:04;1.80;99.90
13591;DHT22;6866;50.778;7.206;2023-01-26T07:57:30;1.80;99.90
13591;DHT22;6866;50.778;7.206;2023-01-26T07:59:56;1.80;99.90
13591;DHT22;6866;50.778;7.206;2023-01-26T08:02:21;1.90;99.90
13591;DHT22;6866;50.778;7.206;2023-01-26T08:04:47;2.00;99.90
13591;DHT22;6866;50.778;7.206;2023-01-26T08:07:13;1.90;99.90
13591;DHT22;6866;50.778;7.206;2023-01-26T08:09:39;1.90;99.90
13591;DHT22;6866;50.778;7.206;2023-01-26T08:12:05;1.90;99.90
13591;DHT22;6866;50.778;7.206;2023-01-26T08:14:31;2.00;99.90
13591;DHT22;6866;50.778;7.206;2023-01-26T08:16:57;2.00;99.90
13591;DHT22;6866;50.778;7.206;2023-01-26T08:19:23;2.10;99.90
13591;DHT22;6866;50.778;7.206;2023-01-26T08:21:48;2.10;99.90
13591;DHT22;6866;50.778;7.206;2023-01-26T08:24:14;2.10;99.90
13591;DHT22;6866;50.778;7.206;2023-01-26T08:26:39;2.10;99.90
13591;DHT22;6866;50.778;7.206;2023-01-26T08:29:05;2.00;99.90
13591;DHT22;6866;50.778;7.206;2023-01-26T08:31:31;2.00;99.90
13591;DHT22;6866;50.778;7.206;2023-01-26T08:33:58;2.00;99.90
13591;DHT22;6866;50.778;7.206;2023-01-26T08:36:24;2.00;99.90
13591;DHT22;6866;50.778;7.206;2023-01-26T08:38:50;2.10;99.90
13591;DHT22;6866;50.778;7.206;2023-01-26T08:41:16;2.10;99.90
13591;DHT22;6866;50.778;7.206;2023-01-26T08:43:42;2.20;99.90
13591;DHT22;6866;50.778;7.206;2023-01-26T08:46:08;2.10;99.90
13591;DHT22;6866;50.778;7.206;2023-01-26T08:48:33;2.00;99.90
13591;DHT22;6866;50.778;7.206;2023-01-26T08:51:01;2.00;99.90
13591;DHT22;6866;50.778;7.206;2023-01-26T08:53:29;2.00;99.90
13591;DHT22;6866;50.778;7.206;2023-01-26T08:55:55;2.00;99.90
13591;DHT22;6866;50.778;7.206;2023-01-26T08:58:21;2.10;99.90
13591;DHT22;6866;50.778;7.206;2023-01-26T09:00:46;2.20;99.90
13591;DHT22;6866;50.778;7.206;2023-01-26T09:03:12;2.10;99.90
13591;DHT22;6866;50.778;7.206;2023-01-26T09:05:39;2.10;99.90
13591;DHT22;6866;50.778;7.206;2023-01-26T09:08:06;2.20;99.90
13591;DHT22;6866;50.778;7.206;2023-01-26T09:10:32;2.30;99.90
13591;DHT22;6866;50.778;7.206;2023-01-26T09:12:59;2.40;99.90
13591;DHT22;6866;50.778;7.206;2023-01-26T09:15:25;2.40;99.90
13591;DHT22;6866;50.778;7.206;2023-01-26T09:17:50;2.40;99.90
13591;DHT22;6866;50.778;7.206;2023-01-26T09:20:17;2.40;99.90
13591;DHT22;6866;50.778;7.206;2023-01-26T09:22:43;2.40;99.90
13591;DHT22;6866;50.778;7.206;2023-01-26T09:25:09;2.40;99.90
13591;DHT22;6866;50.778;7.206;2023-01-26T09:27:35;2.50;99.90
13591;DHT22;6866;50.778;7.206;2023-01-26T09:30:01;2.40;99.90
13591;DHT22;6866;50.778;7.206;2023-01-26T09:32:27;2.20;99.90
13591;DHT22;6866;50.778;7.206;2023-01-26T09:34:52;2.20;99.90
13591;DHT22;6866;50.778;7.206;2023-01-26T09:37:18;2.20;99.90
13591;DHT22;6866;50.778;7.206;2023-01-26T09:39:43;2.30;99.90
13591;DHT22;6866;50.778;7.206;2023-01-26T09:48:11;2.30;99.90
13591;DHT22;6866;50.778;7.206;2023-01-26T09:50:49;2.40;99.90
13591;DHT22;6866;50.778;7.206;2023-01-26T09:53:44;2.40;99.90
13591;DHT22;6866;50.778;7.206;2023-01-26T09:56:18;2.40;99.90
13591;DHT22;6866;50.778;7.206;2023-01-26T09:58:49;2.50;99.90
13591;DHT22;6866;50.778;7.206;2023-01-26T10:01:23;2.50;99.90
13591;DHT22;6866;50.778;7.206;2023-01-26T10:06:37;2.20;99.90
13591;DHT22;6866;50.778;7.206;2023-01-26T10:09:16;2.20;99.90
13591;DHT22;6866;50.778;7.206;2023-01-26T10:11:49;2.20;99.90
13591;DHT22;6866;50.778;7.206;2023-01-26T10:14:33;2.40;99.90
13591;DHT22;6866;50.778;7.206;2023-01-26T10:17:00;2.40;99.90
13591;DHT22;6866;50.778;7.206;2023-01-26T10:19:36;2.50;99.90
13591;DHT22;6866;50.778;7.206;2023-01-26T10:22:29;2.60;99.90
13591;DHT22;6866;50.778;7.206;2023-01-26T10:24:56;2.70;99.90
13591;DHT22;6866;50.778;7.206;2023-01-26T10:27:23;2.70;99.90
13591;DHT22;6866;50.778;7.206;2023-01-26T10:29:49;2.70;99.90
13591;DHT22;6866;50.778;7.206;2023-01-26T10:32:16;2.70;99.90
13591;DHT22;6866;50.778;7.206;2023-01-26T10:34:44;2.90;99.90
13591;DHT22;6866;50.778;7.206;2023-01-26T10:37:27;2.80;99.90
13591;DHT22;6866;50.778;7.206;2023-01-26T10:42:28;2.80;99.90
13591;DHT22;6866;50.778;7.206;2023-01-26T10:44:55;2.80;99.90
13591;DHT22;6866;50.778;7.206;2023-01-26T10:47:21;2.70;99.90
13591;DHT22;6866;50.778;7.206;2023-01-26T10:49:46;2.70;99.90
13591;DHT22;6866;50.778;7.206;2023-01-26T10:52:20;2.70;99.90
13591;DHT22;6866;50.778;7.206;2023-01-26T10:57:30;2.50;99.90
13591;DHT22;6866;50.778;7.206;2023-01-26T11:00:36;2.60;99.90
13591;DHT22;6866;50.778;7.206;2023-01-26T11:03:08;2.60;99.90
13591;DHT22;6866;50.778;7.206;2023-01-26T11:05:40;2.60;99.90
13591;DHT22;6866;50.778;7.206;2023-01-26T11:08:37;2.60;99.90
13591;DHT22;6866;50.778;7.206;2023-01-26T11:11:04;2.50;99.90
13591;DHT22;6866;50.778;7.206;2023-01-26T11:13:32;2.50;99.90
13591;DHT22;6866;50.778;7.206;2023-01-26T11:16:19;2.50;99.90
13591;DHT22;6866;50.778;7.206;2023-01-26T11:18:55;2.60;99.90
13591;DHT22;6866;50.778;7.206;2023-01-26T11:32:46;2.90;99.90
13591;DHT22;6866;50.778;7.206;2023-01-26T11:35:35;3.00;99.90
13591;DHT22;6866;50.778;7.206;2023-01-26T11:38:21;2.90;99.90
13591;DHT22;6866;50.778;7.206;2023-01-26T11:43:48;3.10;99.90
13591;DHT22;6866;50.778;7.206;2023-01-26T11:47:14;3.10;99.90
13591;DHT22;6866;50.778;7.206;2023-01-26T11:51:54;3.10;99.90
13591;DHT22;6866;50.778;7.206;2023-01-26T11:59:48;3.00;99.90
13591;DHT22;6866;50.778;7.206;2023-01-26T12:02:26;3.10;99.90
13591;DHT22;6866;50.778;7.206;2023-01-26T12:04:53;2.90;99.90
13591;DHT22;6866;50.778;7.206;2023-01-26T12:07:28;3.00;99.90
13591;DHT22;6866;50.778;7.206;2023-01-26T12:09:54;3.00;99.90
13591;DHT22;6866;50.778;7.206;2023-01-26T12:12:32;3.10;99.90
13591;DHT22;6866;50.778;7.206;2023-01-26T12:23:04;3.00;99.90
13591;DHT22;6866;50.778;7.206;2023-01-26T12:25:37;3.00;99.90
13591;DHT22;6866;50.778;7.206;2023-01-26T12:28:39;3.00;99.90
13591;DHT22;6866;50.778;7.206;2023-01-26T12:33:38;3.10;99.90
13591;DHT22;6866;50.778;7.206;2023-01-26T12:42:16;3.10;99.90
13591;DHT22;6866;50.778;7.206;2023-01-26T12:44:46;3.00;99.90
13591;DHT22;6866;50.778;7.206;2023-01-26T12:47:19;2.90;99.90
13591;DHT22;6866;50.778;7.206;2023-01-26T12:50:10;3.00;99.90
13591;DHT22;6866;50.778;7.206;2023-01-26T12:55:33;3.20;99.90
13591;DHT22;6866;50.778;7.206;2023-01-26T12:58:18;3.30;99.90
13591;DHT22;6866;50.778;7.206;2023-01-26T13:01:04;3.20;99.90
13591;DHT22;6866;50.778;7.206;2023-01-26T13:03:36;3.10;99.90
13591;DHT22;6866;50.778;7.206;2023-01-26T13:11:05;3.00;99.90
13591;DHT22;6866;50.778;7.206;2023-01-26T13:13:55;3.20;99.90
13591;DHT22;6866;50.778;7.206;2023-01-26T13:16:33;3.20;99.90
13591;DHT22;6866;50.778;7.206;2023-01-26T13:19:00;3.30;99.90
13591;DHT22;6866;50.778;7.206;2023-01-26T13:26:47;3.10;99.90
13591;DHT22;6866;50.778;7.206;2023-01-26T13:34:36;3.10;99.90
13591;DHT22;6866;50.778;7.206;2023-01-26T13:37:11;3.10;99.90
13591;DHT22;6866;50.778;7.206;2023-01-26T13:39:40;3.00;99.90
13591;DHT22;6866;50.778;7.206;2023-01-26T13:42:24;3.10;99.90
13591;DHT22;6866;50.778;7.206;2023-01-26T13:45:12;3.10;99.90
13591;DHT22;6866;50.778;7.206;2023-01-26T13:47:45;3.10;99.90
13591;DHT22;6866;50.778;7.206;2023-01-26T13:50:29;3.20;99.90
13591;DHT22;6866;50.778;7.206;2023-01-26T13:52:56;3.20;99.90
13591;DHT22;6866;50.778;7.206;2023-01-26T13:55:28;3.30;99.90
13591;DHT22;6866;50.778;7.206;2023-01-26T13:58:17;3.30;99.90
13591;DHT22;6866;50.778;7.206;2023-01-26T14:01:00;3.30;99.90
13591;DHT22;6866;50.778;7.206;2023-01-26T14:03:27;3.30;99.90
13591;DHT22;6866;50.778;7.206;2023-01-26T14:06:12;3.40;99.90
13591;DHT22;6866;50.778;7.206;2023-01-26T14:08:44;3.30;99.90
13591;DHT22;6866;50.778;7.206;2023-01-26T14:11:19;3.20;99.90
13591;DHT22;6866;50.778;7.206;2023-01-26T14:13:50;3.30;99.90
13591;DHT22;6866;50.778;7.206;2023-01-26T14:16:23;3.30;99.90
13591;DHT22;6866;50.778;7.206;2023-01-26T14:18:49;3.30;99.90
13591;DHT22;6866;50.778;7.206;2023-01-26T14:21:21;3.20;99.90
13591;DHT22;6866;50.778;7.206;2023-01-26T14:23:54;3.20;99.90
13591;DHT22;6866;50.778;7.206;2023-01-26T14:26:30;3.20;99.90
13591;DHT22;6866;50.778;7.206;2023-01-26T14:28:57;3.20;99.90
13591;DHT22;6866;50.778;7.206;2023-01-26T14:31:26;3.20;99.90
13591;DHT22;6866;50.778;7.206;2023-01-26T14:33:54;3.20;99.90
13591;DHT22;6866;50.778;7.206;2023-01-26T14:36:23;3.20;99.90
13591;DHT22;6866;50.778;7.206;2023-01-26T14:38:51;3.20;99.90
13591;DHT22;6866;50.778;7.206;2023-01-26T14:41:23;3.20;99.90
13591;DHT22;6866;50.778;7.206;2023-01-26T14:43:51;3.10;99.90
13591;DHT22;6866;50.778;7.206;2023-01-26T14:46:22;3.20;99.90
13591;DHT22;6866;50.778;7.206;2023-01-26T14:49:01;3.30;99.90
13591;DHT22;6866;50.778;7.206;2023-01-26T14:51:30;3.30;99.90
13591;DHT22;6866;50.778;7.206;2023-01-26T14:53:59;3.30;99.90
13591;DHT22;6866;50.778;7.206;2023-01-26T14:56:37;3.30;99.90
13591;DHT22;6866;50.778;7.206;2023-01-26T14:59:04;3.40;99.90
13591;DHT22;6866;50.778;7.206;2023-01-26T15:01:30;3.30;99.90
13591;DHT22;6866;50.778;7.206;2023-01-26T15:03:59;3.30;99.90
13591;DHT22;6866;50.778;7.206;2023-01-26T15:06:27;3.40;99.90
13591;DHT22;6866;50.778;7.206;2023-01-26T15:09:16;3.30;99.90
13591;DHT22;6866;50.778;7.206;2023-01-26T15:11:54;3.30;99.90
13591;DHT22;6866;50.778;7.206;2023-01-26T15:14:49;3.30;99.90
13591;DHT22;6866;50.778;7.206;2023-01-26T15:17:39;3.30;99.90
13591;DHT22;6866;50.778;7.206;2023-01-26T15:22:39;3.30;99.90
13591;DHT22;6866;50.778;7.206;2023-01-26T15:25:17;3.30;99.90
13591;DHT22;6866;50.778;7.206;2023-01-26T15:27:54;3.30;99.90
13591;DHT22;6866;50.778;7.206;2023-01-26T15:30:27;3.30;99.90
13591;DHT22;6866;50.778;7.206;2023-01-26T15:32:53;3.30;99.90
13591;DHT22;6866;50.778;7.206;2023-01-26T15:35:20;3.30;99.90
13591;DHT22;6866;50.778;7.206;2023-01-26T15:37:46;3.30;99.90
13591;DHT22;6866;50.778;7.206;2023-01-26T15:40:12;3.30;99.90
13591;DHT22;6866;50.778;7.206;2023-01-26T15:42:38;3.30;99.90
13591;DHT22;6866;50.778;7.206;2023-01-26T15:45:19;3.30;99.90
13591;DHT22;6866;50.778;7.206;2023-01-26T15:47:46;3.40;99.90
13591;DHT22;6866;50.778;7.206;2023-01-26T15:50:12;3.40;99.90
13591;DHT22;6866;50.778;7.206;2023-01-26T15:52:37;3.30;99.90
13591;DHT22;6866;50.778;7.206;2023-01-26T15:55:19;3.30;99.90
13591;DHT22;6866;50.778;7.206;2023-01-26T15:57:45;3.30;99.90
13591;DHT22;6866;50.778;7.206;2023-01-26T16:00:12;3.30;99.90
13591;DHT22;6866;50.778;7.206;2023-01-26T16:02:38;3.40;99.90
13591;DHT22;6866;50.778;7.206;2023-01-26T16:05:03;3.40;99.90
13591;DHT22;6866;50.778;7.206;2023-01-26T16:07:29;3.30;99.90
13591;DHT22;6866;50.778;7.206;2023-01-26T16:09:55;3.40;99.90
13591;DHT22;6866;50.778;7.206;2023-01-26T16:12:20;3.40;99.90
13591;DHT22;6866;50.778;7.206;2023-01-26T16:14:46;3.40;99.90
13591;DHT22;6866;50.778;7.206;2023-01-26T16:17:13;3.40;99.90
13591;DHT22;6866;50.778;7.206;2023-01-26T16:19:39;3.30;99.90
13591;DHT22;6866;50.778;7.206;2023-01-26T16:22:07;3.30;99.90
13591;DHT22;6866;50.778;7.206;2023-01-26T16:24:33;3.30;99.90
13591;DHT22;6866;50.778;7.206;2023-01-26T16:26:59;3.40;99.90
13591;DHT22;6866;50.778;7.206;2023-01-26T16:29:27;3.40;99.90
13591;DHT22;6866;50.778;7.206;2023-01-26T16:31:53;3.30;99.90
13591;DHT22;6866;50.778;7.206;2023-01-26T16:34:18;3.40;99.90
13591;DHT22;6866;50.778;7.206;2023-01-26T16:36:44;3.40;99.90
13591;DHT22;6866;50.778;7.206;2023-01-26T16:39:09;3.40;99.90
13591;DHT22;6866;50.778;7.206;2023-01-26T16:41:35;3.50;99.90
13591;DHT22;6866;50.778;7.206;2023-01-26T16:44:01;3.50;99.90
13591;DHT22;6866;50.778;7.206;2023-01-26T16:46:28;3.50;99.90
13591;DHT22;6866;50.778;7.206;2023-01-26T16:48:54;3.60;99.90
13591;DHT22;6866;50.778;7.206;2023-01-26T16:53:46;3.60;99.90
13591;DHT22;6866;50.778;7.206;2023-01-26T16:56:13;3.60;99.90
13591;DHT22;6866;50.778;7.206;2023-01-26T16:58:39;3.50;99.90
13591;DHT22;6866;50.778;7.206;2023-01-26T17:01:05;3.60;99.90
13591;DHT22;6866;50.778;7.206;2023-01-26T17:03:31;3.50;99.90
13591;DHT22;6866;50.778;7.206;2023-01-26T17:05:57;3.50;99.90
13591;DHT22;6866;50.778;7.206;2023-01-26T17:08:23;3.60;99.90
13591;DHT22;6866;50.778;7.206;2023-01-26T17:10:48;3.60;99.90
13591;DHT22;6866;50.778;7.206;2023-01-26T17:13:15;3.70;99.90
13591;DHT22;6866;50.778;7.206;2023-01-26T17:15:41;3.60;99.90
13591;DHT22;6866;50.778;7.206;2023-01-26T17:18:11;3.70;99.90
13591;DHT22;6866;50.778;7.206;2023-01-26T17:20:37;3.60;99.90
13591;DHT22;6866;50.778;7.206;2023-01-26T17:23:04;3.50;99.90
13591;DHT22;6866;50.778;7.206;2023-01-26T17:25:30;3.60;99.90
13591;DHT22;6866;50.778;7.206;2023-01-26T17:27:55;3.50;99.90
13591;DHT22;6866;50.778;7.206;2023-01-26T17:30:21;3.50;99.90
13591;DHT22;6866;50.778;7.206;2023-01-26T17:32:47;3.60;99.90
13591;DHT22;6866;50.778;7.206;2023-01-26T17:35:12;3.70;99.90
13591;DHT22;6866;50.778;7.206;2023-01-26T17:37:38;3.70;99.90
13591;DHT22;6866;50.778;7.206;2023-01-26T17:40:05;3.70;99.90
13591;DHT22;6866;50.778;7.206;2023-01-26T17:42:31;3.70;99.90
13591;DHT22;6866;50.778;7.206;2023-01-26T17:44:59;3.70;99.90